Airport ICAO


00:48 UTC

-1°C

Overcast


An affordable passengers' Moving Map for your aircraft. Made for the iPad and the iPhone
More information here

LFLS Saint Geoirs


Grenoble FRANCE   VFR


METAR LFLS 230030Z AUTO VRB02KT 7000 FEW019 OVC036 M01/M05 Q1009 0h18min





NOTAMS

OPEN